createdAt,value
2022-08-21T00:00:29.044Z,3.85
2022-08-21T00:05:32.384Z,4.60
2022-08-21T00:15:37.539Z,4.18
2022-08-21T00:20:40.713Z,4.40
2022-08-21T00:25:43.213Z,4.57
2022-08-21T00:30:45.570Z,5.03
2022-08-21T00:35:46.921Z,4.55
2022-08-21T00:40:55.290Z,5.15
2022-08-21T00:45:57.847Z,4.95
2022-08-21T00:51:09.518Z,4.93
2022-08-21T00:56:12.443Z,4.18
2022-08-21T01:01:14.879Z,5.18
2022-08-21T01:06:16.294Z,4.30
2022-08-21T01:11:18.225Z,4.85
2022-08-21T01:16:22.427Z,4.82
2022-08-21T01:21:28.072Z,5.47
2022-08-21T01:26:34.329Z,4.80
2022-08-21T01:31:36.103Z,5.15
2022-08-21T01:36:37.565Z,5.35
2022-08-21T01:41:38.943Z,4.85
2022-08-21T01:46:40.546Z,4.68
2022-08-21T01:51:42.168Z,5.05
2022-08-21T01:56:47.242Z,4.57
2022-08-21T02:01:49.410Z,3.75
2022-08-21T02:06:51.070Z,4.22
2022-08-21T02:11:53.162Z,5.65
2022-08-21T02:17:05.538Z,4.78
2022-08-21T02:22:11.871Z,5.00
2022-08-21T02:27:13.207Z,4.45
2022-08-21T02:32:15.840Z,4.88
2022-08-21T02:37:17.362Z,5.17
2022-08-21T02:42:18.935Z,5.15
2022-08-21T02:47:20.363Z,5.10
2022-08-21T02:52:22.829Z,5.32
2022-08-21T02:57:24.221Z,5.53
2022-08-21T03:02:26.662Z,6.47
2022-08-21T03:07:28.156Z,5.13
2022-08-21T03:12:30.081Z,4.45
2022-08-21T03:17:31.980Z,4.88
2022-08-21T03:22:33.628Z,5.05
2022-08-21T03:27:35.414Z,4.20
2022-08-21T03:32:37.205Z,4.63
2022-08-21T03:37:38.617Z,5.03
2022-08-21T03:42:40.408Z,5.78
2022-08-21T03:48:11.171Z,5.93
2022-08-21T03:53:17.355Z,5.80
2022-08-21T03:58:21.249Z,5.22
2022-08-21T04:08:24.342Z,5.68
2022-08-21T04:13:28.952Z,5.60
2022-08-21T04:18:30.381Z,6.00
2022-08-21T04:23:32.130Z,5.18
2022-08-21T04:28:33.470Z,6.25
2022-08-21T04:33:35.542Z,6.18
2022-08-21T04:38:37.754Z,7.18
2022-08-21T04:43:40.390Z,4.87
2022-08-21T04:48:41.878Z,5.50
2022-08-21T04:53:50.022Z,5.25
2022-08-21T04:58:58.175Z,6.20
2022-08-21T05:04:02.751Z,5.72
2022-08-21T05:09:05.249Z,5.38
2022-08-21T05:14:06.647Z,5.55
2022-08-21T05:19:09.132Z,5.82
2022-08-21T05:24:11.275Z,5.97
2022-08-21T05:29:13.577Z,5.97
2022-08-21T05:34:19.135Z,6.55
2022-08-21T05:39:20.768Z,7.13
2022-08-21T05:44:22.490Z,7.93
2022-08-21T05:49:23.949Z,6.60
2022-08-21T05:54:25.707Z,7.50
2022-08-21T05:59:28.546Z,7.22
2022-08-21T06:04:30.238Z,9.17
2022-08-21T06:09:31.726Z,8.13
2022-08-21T06:14:33.154Z,7.53
2022-08-21T06:19:36.251Z,7.50
2022-08-21T06:24:37.634Z,7.53
2022-08-21T06:29:44.378Z,6.78
2022-08-21T06:34:46.191Z,7.32
2022-08-21T06:39:47.571Z,6.65
2022-08-21T06:44:51.178Z,8.23
2022-08-21T06:49:52.582Z,7.72
2022-08-21T06:54:54.760Z,7.07
2022-08-21T06:59:56.110Z,7.05
2022-08-21T07:04:57.482Z,7.43
2022-08-21T07:09:58.917Z,7.28
2022-08-21T07:15:00.399Z,6.93
2022-08-21T07:20:02.065Z,7.22
2022-08-21T07:25:05.246Z,7.35
2022-08-21T07:30:07.545Z,6.65
2022-08-21T07:35:09.039Z,6.95
2022-08-21T07:40:10.887Z,7.63
2022-08-21T07:45:13.714Z,7.25
2022-08-21T07:50:16.276Z,5.60
2022-08-21T07:55:20.575Z,5.70
2022-08-21T08:00:25.219Z,6.15
2022-08-21T08:05:29.017Z,6.00
2022-08-21T08:10:30.581Z,6.57
2022-08-21T08:15:37.349Z,5.57
2022-08-21T08:20:39.063Z,7.40
2022-08-21T08:25:41.952Z,6.90
2022-08-21T08:30:43.553Z,6.80
2022-08-21T08:35:48.606Z,5.85
2022-08-21T08:41:19.781Z,5.88
2022-08-21T08:46:35.271Z,7.28
2022-08-21T08:51:43.139Z,5.57
2022-08-21T08:56:45.994Z,5.20
2022-08-21T09:06:55.311Z,4.70
2022-08-21T09:12:11.370Z,4.53
2022-08-21T09:17:25.053Z,4.80
2022-08-21T09:22:50.596Z,5.57
2022-08-21T09:27:52.397Z,4.03
2022-08-21T09:32:53.883Z,3.80
2022-08-21T09:38:03.745Z,4.05
2022-08-21T09:43:22.740Z,3.05
2022-08-21T09:48:32.459Z,3.08
2022-08-21T09:53:36.303Z,2.70
2022-08-21T09:58:39.913Z,3.90
2022-08-21T10:03:41.418Z,2.75
2022-08-21T10:08:42.894Z,3.17
2022-08-21T10:14:11.010Z,2.60
2022-08-21T10:19:32.066Z,2.65
2022-08-21T10:24:45.740Z,2.50
2022-08-21T10:29:56.063Z,2.75
2022-08-21T10:35:09.243Z,3.00
2022-08-21T10:40:22.419Z,2.88
2022-08-21T10:46:03.522Z,3.20
2022-08-21T10:51:15.069Z,2.22
2022-08-21T10:56:39.302Z,2.30
2022-08-21T11:02:00.636Z,2.75
2022-08-21T11:07:20.776Z,2.10
2022-08-21T11:12:43.500Z,2.00
2022-08-21T11:17:56.469Z,2.20
2022-08-21T11:23:15.500Z,2.45
2022-08-21T11:28:22.382Z,2.17
2022-08-21T11:33:43.382Z,2.08
2022-08-21T11:38:58.028Z,1.80
2022-08-21T11:44:35.380Z,2.40
2022-08-21T11:49:39.508Z,1.70
2022-08-21T11:55:23.497Z,1.90
2022-08-21T12:00:40.091Z,1.92
2022-08-21T12:05:45.634Z,1.95
2022-08-21T12:10:59.813Z,2.13
2022-08-21T12:16:15.406Z,1.90
2022-08-21T12:21:29.466Z,1.90
2022-08-21T12:26:48.592Z,2.13
2022-08-21T12:32:06.214Z,1.45
2022-08-21T12:37:35.931Z,2.10
2022-08-21T12:42:58.046Z,2.43
2022-08-21T12:48:27.089Z,2.05
2022-08-21T12:53:48.967Z,1.48
2022-08-21T12:58:54.721Z,1.70
2022-08-21T13:04:04.630Z,2.15
2022-08-21T13:09:11.765Z,1.73
2022-08-21T13:14:35.095Z,2.15
2022-08-21T13:19:42.239Z,1.80
2022-08-21T13:24:43.971Z,2.20
2022-08-21T13:29:47.454Z,2.20
2022-08-21T13:34:55.436Z,1.73
2022-08-21T13:39:56.960Z,3.05
2022-08-21T13:44:58.367Z,1.65
2022-08-21T13:55:16.907Z,2.00
2022-08-21T14:00:27.758Z,1.98
2022-08-21T14:05:32.787Z,3.00
2022-08-21T14:10:41.766Z,2.15
2022-08-21T14:15:44.390Z,1.80
2022-08-21T14:20:46.655Z,1.50
2022-08-21T14:25:48.169Z,1.88
2022-08-21T14:30:51.523Z,1.95
2022-08-21T14:35:55.354Z,1.52
2022-08-21T14:41:01.242Z,1.90
2022-08-21T14:46:02.655Z,1.90
2022-08-21T14:51:04.137Z,2.30
2022-08-21T14:56:06.001Z,2.63
2022-08-21T15:06:11.357Z,2.10
2022-08-21T15:11:41.108Z,1.63
2022-08-21T15:16:39.246Z,2.00
2022-08-21T15:21:40.635Z,2.00
2022-08-21T15:26:42.630Z,1.30
2022-08-21T15:37:02.082Z,1.40
2022-08-21T15:42:10.587Z,1.38
2022-08-21T15:47:18.856Z,1.45
2022-08-21T15:52:22.291Z,1.00
2022-08-21T15:57:25.415Z,2.08
2022-08-21T16:02:31.247Z,1.30
2022-08-21T16:07:32.713Z,1.20
2022-08-21T16:12:39.561Z,1.60
2022-08-21T16:17:44.593Z,1.55
2022-08-21T16:22:46.319Z,1.17
2022-08-21T16:27:53.632Z,1.30
2022-08-21T16:32:58.097Z,1.30
2022-08-21T16:37:59.692Z,1.13
2022-08-21T16:43:02.174Z,1.20
2022-08-21T16:48:06.460Z,1.95
2022-08-21T16:53:08.553Z,1.58
2022-08-21T16:58:32.266Z,1.08
2022-08-21T17:03:42.287Z,1.60
2022-08-21T17:08:44.742Z,1.75
2022-08-21T17:18:47.806Z,1.48
2022-08-21T17:23:53.614Z,1.63
2022-08-21T17:28:55.227Z,1.30
2022-08-21T17:33:56.872Z,0.80
2022-08-21T17:38:58.865Z,1.52
2022-08-21T17:44:06.195Z,1.38
2022-08-21T17:49:08.513Z,1.45
2022-08-21T17:54:10.399Z,1.38
2022-08-21T17:59:12.165Z,1.23
2022-08-21T18:04:14.251Z,1.05
2022-08-21T18:09:15.620Z,1.27
2022-08-21T18:14:17.022Z,1.92
2022-08-21T18:19:21.350Z,1.13
2022-08-21T18:24:23.907Z,1.55
2022-08-21T18:29:25.363Z,1.95
2022-08-21T18:34:31.776Z,1.38
2022-08-21T18:39:37.269Z,1.00
2022-08-21T18:44:41.224Z,1.27
2022-08-21T18:49:42.634Z,1.38
2022-08-21T18:54:44.332Z,1.40
2022-08-21T18:59:46.548Z,1.50
2022-08-21T19:04:48.197Z,1.27
2022-08-21T19:10:20.993Z,1.40
2022-08-21T19:15:17.333Z,1.33
2022-08-21T19:20:26.161Z,1.95
2022-08-21T19:25:33.919Z,1.65
2022-08-21T19:30:47.935Z,1.50
2022-08-21T19:41:13.833Z,1.55
2022-08-21T19:46:22.122Z,1.15
2022-08-21T19:51:24.019Z,1.05
2022-08-21T19:56:28.939Z,0.88
2022-08-21T20:01:30.455Z,1.25
2022-08-21T20:06:34.820Z,1.02
2022-08-21T20:11:45.168Z,0.80
2022-08-21T20:16:52.435Z,0.90
2022-08-21T20:21:55.086Z,1.30
2022-08-21T20:26:58.329Z,0.90
2022-08-21T20:32:00.270Z,0.80
2022-08-21T20:37:02.053Z,0.60
2022-08-21T20:42:08.769Z,0.85
2022-08-21T20:47:10.676Z,1.00
2022-08-21T20:52:15.905Z,0.73
2022-08-21T20:57:22.003Z,1.10
2022-08-21T21:02:46.093Z,0.57
2022-08-21T21:08:12.071Z,0.73
2022-08-21T21:13:44.570Z,0.80
2022-08-21T21:18:54.295Z,1.17
2022-08-21T21:24:20.345Z,0.90
2022-08-21T21:29:30.356Z,0.77
2022-08-21T21:34:38.343Z,1.23
2022-08-21T21:39:53.155Z,1.15
2022-08-21T21:45:10.110Z,1.08
2022-08-21T21:50:20.948Z,0.70
2022-08-21T21:55:53.265Z,1.00
2022-08-21T22:01:11.977Z,0.90
2022-08-21T22:06:23.018Z,1.10
2022-08-21T22:11:33.273Z,0.95
2022-08-21T22:16:36.892Z,1.02
2022-08-21T22:21:42.483Z,0.90
2022-08-21T22:26:50.660Z,0.70
2022-08-21T22:32:10.457Z,0.90
2022-08-21T22:37:12.832Z,0.88
2022-08-21T22:42:22.207Z,0.80
2022-08-21T22:47:30.437Z,0.70
2022-08-21T22:52:37.264Z,0.60
2022-08-21T22:57:39.599Z,0.98
2022-08-21T23:03:16.477Z,1.00
2022-08-21T23:08:37.273Z,0.95
2022-08-21T23:13:45.757Z,0.73
2022-08-21T23:19:11.355Z,0.90
2022-08-21T23:24:50.404Z,0.95
2022-08-21T23:29:51.809Z,0.90
2022-08-21T23:35:44.179Z,0.70
2022-08-21T23:40:57.994Z,0.68
2022-08-21T23:46:20.983Z,0.85
2022-08-21T23:51:57.453Z,0.80
2022-08-21T23:57:08.247Z,0.88
